createdAt,value
2018-08-30T00:02:22.614Z,56.92
2018-08-30T00:04:52.393Z,57.17
2018-08-30T00:07:22.162Z,57.51
2018-08-30T00:09:51.915Z,56.75
2018-08-30T00:12:21.666Z,58.35
2018-08-30T00:14:51.457Z,57.91
2018-08-30T00:17:21.245Z,57.70
2018-08-30T00:19:50.647Z,57.84
2018-08-30T00:22:20.036Z,57.90
2018-08-30T00:24:49.431Z,57.79
2018-08-30T00:27:19.146Z,57.96
2018-08-30T00:29:48.876Z,58.09
2018-08-30T00:32:18.700Z,60.19
2018-08-30T00:34:48.111Z,59.20
2018-08-30T00:37:18.267Z,58.81
2018-08-30T00:39:48.003Z,59.59
2018-08-30T00:42:17.694Z,61.33
2018-08-30T00:44:47.516Z,60.23
2018-08-30T00:47:21.526Z,60.28
2018-08-30T00:49:51.991Z,60.62
2018-08-30T00:52:21.839Z,60.87
2018-08-30T00:54:51.215Z,61.14
2018-08-30T00:57:20.615Z,61.27
2018-08-30T00:59:50.351Z,61.50
2018-08-30T01:02:20.159Z,61.30
2018-08-30T01:04:49.557Z,62.06
2018-08-30T01:07:18.934Z,62.70
2018-08-30T01:09:48.398Z,62.37
2018-08-30T01:12:18.271Z,62.19
2018-08-30T01:14:47.687Z,61.91
2018-08-30T01:17:17.408Z,61.85
2018-08-30T01:19:47.203Z,62.43
2018-08-30T01:22:16.965Z,61.92
2018-08-30T01:24:46.371Z,62.23
2018-08-30T01:27:15.787Z,62.58
2018-08-30T01:29:45.564Z,63.02
2018-08-30T01:32:15.439Z,63.04
2018-08-30T01:34:44.816Z,63.40
2018-08-30T01:37:14.178Z,63.45
2018-08-30T01:39:44.031Z,63.90
2018-08-30T01:42:13.426Z,64.07
2018-08-30T01:44:42.834Z,64.31
2018-08-30T01:47:12.281Z,64.23
2018-08-30T01:49:41.718Z,64.20
2018-08-30T01:52:11.480Z,64.10
2018-08-30T01:54:40.929Z,64.12
2018-08-30T01:57:10.783Z,64.75
2018-08-30T01:59:40.166Z,65.75
2018-08-30T02:02:09.587Z,64.93
2018-08-30T02:04:39.093Z,65.69
2018-08-30T02:07:08.514Z,66.26
2018-08-30T02:09:38.084Z,65.81
2018-08-30T02:12:07.489Z,65.58
2018-08-30T02:14:37.338Z,65.32
2018-08-30T02:17:07.282Z,65.45
2018-08-30T02:19:36.906Z,65.93
2018-08-30T02:22:06.415Z,66.87
2018-08-30T02:24:35.833Z,65.95
2018-08-30T02:27:05.294Z,66.09
2018-08-30T02:29:34.857Z,65.63
2018-08-30T02:32:04.288Z,66.41
2018-08-30T02:34:34.088Z,66.09
2018-08-30T02:37:03.936Z,66.18
2018-08-30T02:39:33.312Z,66.08
2018-08-30T02:42:02.891Z,66.35
2018-08-30T02:44:32.663Z,65.87
2018-08-30T02:47:02.519Z,66.50
2018-08-30T02:49:32.246Z,66.82
2018-08-30T02:52:01.654Z,66.37
2018-08-30T02:54:31.577Z,66.83
2018-08-30T02:57:01.389Z,67.04
2018-08-30T02:59:30.762Z,67.31
2018-08-30T03:02:00.195Z,67.47
2018-08-30T03:04:29.617Z,68.67
2018-08-30T03:06:59.102Z,68.21
2018-08-30T03:09:28.559Z,67.70
2018-08-30T03:11:57.946Z,67.43
2018-08-30T03:14:27.715Z,67.52
2018-08-30T03:16:57.592Z,68.01
2018-08-30T03:19:26.980Z,68.46
2018-08-30T03:21:56.417Z,68.50
2018-08-30T03:24:25.767Z,68.74
2018-08-30T03:26:55.344Z,68.42
2018-08-30T03:29:25.053Z,68.89
2018-08-30T03:31:54.583Z,69.09
2018-08-30T03:34:23.989Z,69.39
2018-08-30T03:36:53.694Z,70.63
2018-08-30T03:39:23.083Z,70.85
2018-08-30T03:41:52.584Z,71.37
2018-08-30T03:44:22.050Z,71.14
2018-08-30T03:46:51.497Z,70.38
2018-08-30T03:49:20.864Z,71.87
2018-08-30T03:51:50.272Z,71.40
2018-08-30T03:54:19.650Z,71.82
2018-08-30T03:56:49.054Z,71.86
2018-08-30T03:59:18.946Z,71.63
2018-08-30T04:01:48.717Z,72.18
2018-08-30T04:04:18.138Z,72.21
2018-08-30T04:06:47.625Z,73.80
2018-08-30T04:09:17.055Z,73.01
2018-08-30T04:11:46.463Z,73.97
2018-08-30T04:14:16.205Z,72.69
2018-08-30T04:16:45.612Z,72.46
2018-08-30T04:19:15.421Z,73.04
2018-08-30T04:21:44.762Z,72.72
2018-08-30T04:24:14.258Z,72.71
2018-08-30T04:26:43.626Z,72.39
2018-08-30T04:29:13.064Z,72.05
2018-08-30T04:31:42.429Z,71.69
2018-08-30T04:34:11.873Z,72.22
2018-08-30T04:36:41.283Z,72.78
2018-08-30T04:39:11.109Z,73.14
2018-08-30T04:41:40.551Z,73.01
2018-08-30T04:44:09.975Z,72.80
2018-08-30T04:46:39.712Z,72.38
2018-08-30T04:49:09.114Z,71.52
2018-08-30T04:51:38.881Z,71.93
2018-08-30T04:54:08.353Z,71.71
2018-08-30T04:56:38.163Z,71.36
2018-08-30T04:59:07.549Z,71.61
2018-08-30T05:01:37.368Z,72.53
2018-08-30T05:04:06.909Z,72.33
2018-08-30T05:06:36.311Z,71.97
2018-08-30T05:09:10.222Z,72.49
2018-08-30T05:11:40.573Z,72.35
2018-08-30T05:14:10.510Z,72.15
2018-08-30T05:16:40.013Z,72.37
2018-08-30T05:19:09.438Z,72.62
2018-08-30T05:21:38.866Z,71.82
2018-08-30T05:24:08.645Z,71.25
2018-08-30T05:26:38.494Z,70.19
2018-08-30T05:29:07.899Z,69.22
2018-08-30T05:31:37.331Z,68.88
2018-08-30T05:34:06.853Z,67.43
2018-08-30T05:36:36.291Z,66.83
2018-08-30T05:39:07.647Z,65.49
2018-08-30T05:41:37.104Z,65.00
2018-08-30T05:44:06.572Z,63.54
2018-08-30T05:46:35.991Z,62.72
2018-08-30T05:49:05.478Z,62.30
2018-08-30T05:51:35.237Z,61.09
2018-08-30T05:54:04.759Z,60.36
2018-08-30T05:56:34.521Z,59.85
2018-08-30T05:59:04.299Z,58.83
2018-08-30T06:01:34.096Z,58.16
2018-08-30T06:04:03.993Z,57.91
2018-08-30T06:06:33.769Z,58.62
2018-08-30T06:09:03.979Z,58.61
2018-08-30T06:11:33.777Z,59.09
2018-08-30T06:14:03.529Z,59.50
2018-08-30T06:16:32.953Z,59.43
2018-08-30T06:19:02.770Z,59.78
2018-08-30T06:21:32.548Z,59.44
2018-08-30T06:24:02.355Z,58.94
2018-08-30T06:26:32.111Z,58.97
2018-08-30T06:29:01.921Z,58.98
2018-08-30T06:31:31.643Z,58.28
2018-08-30T06:34:01.042Z,57.56
2018-08-30T06:36:30.760Z,56.15
2018-08-30T06:39:00.505Z,55.57
2018-08-30T06:41:29.876Z,53.49
2018-08-30T06:43:59.244Z,52.17
2018-08-30T06:46:28.963Z,51.21
2018-08-30T06:48:58.338Z,50.56
2018-08-30T06:51:28.091Z,49.28
2018-08-30T06:53:57.924Z,49.54
2018-08-30T06:56:27.781Z,49.23
2018-08-30T06:58:57.423Z,48.50
2018-08-30T07:01:27.018Z,48.68
2018-08-30T07:03:56.808Z,48.11
2018-08-30T07:06:26.155Z,47.48
2018-08-30T07:08:55.885Z,47.93
2018-08-30T07:11:25.230Z,48.25
2018-08-30T07:13:54.992Z,48.06
2018-08-30T07:16:24.833Z,48.63
2018-08-30T07:18:54.632Z,48.75
2018-08-30T07:21:24.044Z,48.81
2018-08-30T07:23:53.795Z,49.04
2018-08-30T07:26:23.228Z,49.69
2018-08-30T07:28:52.624Z,50.78
2018-08-30T07:31:22.469Z,51.11
2018-08-30T07:33:52.287Z,52.15
2018-08-30T07:36:22.121Z,52.59
2018-08-30T07:38:51.581Z,53.00
2018-08-30T07:41:21.073Z,53.62
2018-08-30T07:43:50.509Z,54.25
2018-08-30T07:46:19.980Z,54.87
2018-08-30T07:48:49.768Z,56.06
2018-08-30T07:51:19.589Z,56.99
2018-08-30T07:53:49.319Z,58.26
2018-08-30T07:56:19.130Z,58.85
2018-08-30T07:58:48.908Z,61.30
2018-08-30T08:01:18.334Z,64.75
2018-08-30T08:03:48.052Z,65.16
2018-08-30T08:06:17.899Z,65.93
2018-08-30T08:08:47.574Z,66.73
2018-08-30T08:11:17.291Z,70.28
2018-08-30T08:13:46.664Z,70.53
2018-08-30T08:16:16.435Z,70.11
2018-08-30T08:18:46.168Z,71.61
2018-08-30T08:21:15.911Z,70.77
2018-08-30T08:23:45.331Z,71.12
2018-08-30T08:26:15.057Z,73.37
2018-08-30T08:28:44.885Z,71.97
2018-08-30T08:31:14.268Z,71.86
2018-08-30T08:33:44.577Z,72.44
2018-08-30T08:36:14.391Z,72.07
2018-08-30T08:38:44.219Z,71.76
2018-08-30T08:41:13.651Z,73.07
2018-08-30T08:43:43.444Z,73.68
2018-08-30T08:46:13.293Z,75.18
2018-08-30T08:48:43.040Z,75.28
2018-08-30T08:51:13.039Z,74.54
2018-08-30T08:53:42.865Z,75.02
2018-08-30T08:56:12.623Z,74.40
2018-08-30T08:58:42.388Z,75.13
2018-08-30T09:01:12.249Z,74.38
2018-08-30T09:03:41.936Z,74.52
2018-08-30T09:06:11.527Z,74.79
2018-08-30T09:08:41.319Z,73.60
2018-08-30T09:11:10.763Z,72.84
2018-08-30T09:13:40.174Z,71.42
2018-08-30T09:16:09.997Z,71.33
2018-08-30T09:18:39.768Z,72.54
2018-08-30T09:21:09.591Z,71.45
2018-08-30T09:23:39.027Z,71.75
2018-08-30T09:26:08.899Z,71.79
2018-08-30T09:28:38.684Z,70.19
2018-08-30T09:31:08.185Z,71.49
2018-08-30T09:33:37.529Z,71.07
2018-08-30T09:36:07.661Z,72.16
2018-08-30T09:38:37.440Z,73.33
2018-08-30T09:41:07.312Z,76.20
2018-08-30T09:43:37.136Z,75.33
2018-08-30T09:46:06.656Z,75.59
2018-08-30T09:48:36.391Z,75.56
2018-08-30T09:51:06.332Z,74.22
2018-08-30T09:53:35.755Z,74.13
2018-08-30T09:56:05.369Z,74.28
2018-08-30T09:58:35.103Z,75.74
2018-08-30T10:01:09.854Z,77.83
2018-08-30T10:03:39.266Z,77.67
2018-08-30T10:06:09.033Z,78.32
2018-08-30T10:08:38.481Z,78.51
2018-08-30T10:11:07.830Z,77.79
2018-08-30T10:13:37.230Z,76.72
2018-08-30T10:16:07.038Z,75.08
2018-08-30T10:18:36.922Z,75.55
2018-08-30T10:21:06.714Z,75.41
2018-08-30T10:23:36.496Z,77.08
2018-08-30T10:26:06.626Z,78.30
2018-08-30T10:28:36.102Z,77.67
2018-08-30T10:31:05.759Z,77.53
2018-08-30T10:33:35.245Z,75.55
2018-08-30T10:36:04.862Z,74.02
2018-08-30T10:38:34.737Z,71.45
2018-08-30T10:41:04.635Z,67.91
2018-08-30T10:43:34.470Z,65.24
2018-08-30T10:46:04.380Z,62.87
2018-08-30T10:48:34.058Z,60.23
2018-08-30T10:51:03.898Z,61.11
2018-08-30T10:53:33.462Z,63.82
2018-08-30T10:56:03.313Z,63.89
2018-08-30T10:58:33.004Z,64.91
2018-08-30T11:01:02.512Z,66.51
2018-08-30T11:03:32.045Z,67.94
2018-08-30T11:06:02.045Z,69.67
2018-08-30T11:08:31.614Z,71.29
2018-08-30T11:11:01.109Z,71.95
2018-08-30T11:13:30.692Z,71.18
2018-08-30T11:16:00.130Z,71.60
2018-08-30T11:18:30.126Z,70.57
2018-08-30T11:20:59.556Z,69.33
2018-08-30T11:23:29.367Z,67.53
2018-08-30T11:25:58.732Z,66.98
2018-08-30T11:28:28.182Z,66.10
2018-08-30T11:30:57.614Z,64.53
2018-08-30T11:33:27.266Z,63.22
2018-08-30T11:35:56.666Z,65.06
2018-08-30T11:38:26.091Z,67.08
2018-08-30T11:40:55.842Z,68.99
2018-08-30T11:43:25.388Z,67.11
2018-08-30T11:45:55.058Z,66.68
2018-08-30T11:48:24.826Z,67.50
2018-08-30T11:50:54.228Z,68.30
2018-08-30T11:53:23.709Z,69.93
2018-08-30T11:55:53.122Z,68.97
2018-08-30T11:58:22.569Z,65.44
2018-08-30T12:00:52.039Z,61.86
2018-08-30T12:03:22.712Z,59.59
2018-08-30T12:05:52.978Z,60.73
2018-08-30T12:08:22.854Z,60.11
2018-08-30T12:10:52.302Z,61.95
2018-08-30T12:13:21.641Z,63.58
2018-08-30T12:15:51.021Z,65.71
2018-08-30T12:18:20.450Z,68.10
2018-08-30T12:20:50.284Z,70.13
2018-08-30T12:23:19.609Z,70.83
2018-08-30T12:25:49.360Z,73.04
2018-08-30T12:28:18.824Z,72.44
2018-08-30T12:30:48.274Z,72.81
2018-08-30T12:33:17.663Z,72.65
2018-08-30T12:35:47.579Z,71.83
2018-08-30T12:38:17.333Z,72.71
2018-08-30T12:40:47.066Z,72.81
2018-08-30T12:43:16.952Z,73.84
2018-08-30T12:45:46.597Z,74.40
2018-08-30T12:48:16.370Z,75.29
2018-08-30T12:50:46.249Z,75.11
2018-08-30T12:53:15.656Z,73.57
2018-08-30T12:55:45.466Z,70.85
2018-08-30T12:58:15.365Z,69.93
2018-08-30T13:00:44.980Z,69.73
2018-08-30T13:03:14.879Z,70.37
2018-08-30T13:05:44.971Z,70.44
2018-08-30T13:08:14.188Z,69.24
2018-08-30T13:10:44.328Z,69.17
2018-08-30T13:13:13.920Z,69.43
2018-08-30T13:15:43.375Z,67.49
2018-08-30T13:18:12.757Z,67.50
2018-08-30T13:20:42.780Z,66.70
2018-08-30T13:23:12.049Z,65.71
2018-08-30T13:25:41.787Z,66.43
2018-08-30T13:28:11.858Z,64.66
2018-08-30T13:30:41.386Z,63.68
2018-08-30T13:33:10.981Z,63.11
2018-08-30T13:35:40.783Z,65.22
2018-08-30T13:38:10.861Z,66.26
2018-08-30T13:40:41.058Z,66.96
2018-08-30T13:43:10.717Z,66.22
2018-08-30T13:45:40.207Z,65.54
2018-08-30T13:48:10.386Z,64.69
2018-08-30T13:50:40.545Z,64.43
2018-08-30T13:53:10.419Z,63.21
2018-08-30T13:55:39.823Z,61.17
2018-08-30T13:58:09.741Z,60.95
2018-08-30T14:00:42.139Z,60.94
2018-08-30T14:03:11.684Z,62.51
2018-08-30T14:05:44.219Z,62.39
2018-08-30T14:08:13.466Z,64.17
2018-08-30T14:10:43.457Z,65.50
2018-08-30T14:13:13.187Z,65.94
2018-08-30T14:15:42.493Z,67.34
2018-08-30T14:18:11.931Z,66.43
2018-08-30T14:20:41.989Z,66.03
2018-08-30T14:23:12.092Z,64.45
2018-08-30T14:25:41.621Z,61.78
2018-08-30T14:28:12.338Z,61.39
2018-08-30T14:30:42.414Z,62.19
2018-08-30T14:33:12.581Z,62.40
2018-08-30T14:35:42.089Z,63.31
2018-08-30T14:38:11.937Z,62.89
2018-08-30T14:40:41.857Z,64.36
2018-08-30T14:43:11.330Z,65.72
2018-08-30T14:45:40.717Z,64.31
2018-08-30T14:48:10.181Z,63.66
2018-08-30T14:50:39.561Z,63.95
2018-08-30T14:53:09.092Z,63.16
2018-08-30T14:55:38.549Z,62.91
2018-08-30T14:58:08.193Z,62.32
2018-08-30T15:00:37.809Z,61.24
2018-08-30T15:03:07.245Z,60.38
2018-08-30T15:05:36.719Z,59.51
2018-08-30T15:08:06.180Z,57.78
2018-08-30T15:10:36.013Z,57.00
2018-08-30T15:13:06.136Z,56.54
2018-08-30T15:15:35.555Z,56.85
2018-08-30T15:18:04.968Z,57.93
2018-08-30T15:20:34.542Z,59.25
2018-08-30T15:23:04.329Z,59.30
2018-08-30T15:25:34.617Z,60.57
2018-08-30T15:28:04.062Z,61.47
2018-08-30T15:30:34.042Z,61.47
2018-08-30T15:33:04.040Z,62.50
2018-08-30T15:35:35.623Z,62.79
2018-08-30T15:38:05.195Z,63.16
2018-08-30T15:40:35.056Z,62.56
2018-08-30T15:43:05.125Z,61.45
2018-08-30T15:45:34.581Z,60.64
2018-08-30T15:48:04.476Z,60.73
2018-08-30T15:50:34.664Z,60.48
2018-08-30T15:53:04.762Z,60.38
2018-08-30T15:55:34.584Z,59.77
2018-08-30T15:58:04.572Z,59.46
2018-08-30T16:00:34.119Z,58.06
2018-08-30T16:03:05.269Z,56.80
2018-08-30T16:05:35.836Z,56.55
2018-08-30T16:08:05.680Z,56.67
2018-08-30T16:10:35.991Z,56.53
2018-08-30T16:13:05.687Z,56.53
2018-08-30T16:15:35.110Z,57.19
2018-08-30T16:18:05.231Z,56.92
2018-08-30T16:20:34.618Z,58.55
2018-08-30T16:23:10.287Z,59.53
2018-08-30T16:25:42.674Z,60.16
2018-08-30T16:28:12.259Z,59.60
2018-08-30T16:30:42.721Z,59.63
2018-08-30T16:33:13.048Z,59.48
2018-08-30T16:35:42.853Z,59.89
2018-08-30T16:38:15.088Z,60.15
2018-08-30T16:40:45.019Z,60.23
2018-08-30T16:43:14.755Z,59.99
2018-08-30T16:45:44.827Z,60.26
2018-08-30T16:48:17.527Z,60.35
2018-08-30T16:50:47.873Z,60.42
2018-08-30T16:53:17.404Z,61.03
2018-08-30T16:55:47.115Z,61.16
2018-08-30T16:58:16.671Z,61.51
2018-08-30T17:00:46.115Z,61.77
2018-08-30T17:03:15.786Z,62.70
2018-08-30T17:05:45.222Z,62.95
2018-08-30T17:08:14.969Z,62.67
2018-08-30T17:10:44.907Z,63.31
2018-08-30T17:13:14.407Z,63.22
2018-08-30T17:15:43.957Z,63.06
2018-08-30T17:18:13.436Z,62.96
2018-08-30T17:20:50.569Z,63.02
2018-08-30T17:23:20.959Z,63.40
2018-08-30T17:25:50.763Z,62.52
2018-08-30T17:28:20.646Z,62.63
2018-08-30T17:30:50.112Z,62.94
2018-08-30T17:33:20.230Z,64.19
2018-08-30T17:35:49.820Z,64.57
2018-08-30T17:38:19.597Z,65.11
2018-08-30T17:40:49.095Z,65.57
2018-08-30T17:43:18.877Z,66.03
2018-08-30T17:45:48.615Z,66.48
2018-08-30T17:48:18.407Z,67.48
2018-08-30T17:50:48.339Z,66.82
2018-08-30T17:53:17.881Z,66.63
2018-08-30T17:55:47.434Z,67.40
2018-08-30T17:58:17.215Z,67.24
2018-08-30T18:00:47.224Z,67.49
2018-08-30T18:03:17.589Z,67.60
2018-08-30T18:05:47.400Z,67.92
2018-08-30T18:08:17.653Z,68.28
2018-08-30T18:10:47.331Z,69.28
2018-08-30T18:13:16.866Z,69.47
2018-08-30T18:15:47.167Z,70.21
2018-08-30T18:18:17.127Z,69.84
2018-08-30T18:20:46.829Z,69.77
2018-08-30T18:23:16.454Z,69.55
2018-08-30T18:25:52.912Z,68.72
2018-08-30T18:28:22.704Z,68.78
2018-08-30T18:30:52.248Z,68.83
2018-08-30T18:33:21.698Z,68.84
2018-08-30T18:35:51.139Z,69.15
2018-08-30T18:38:20.977Z,69.03
2018-08-30T18:40:50.837Z,68.40
2018-08-30T18:43:20.715Z,69.03
2018-08-30T18:45:50.790Z,68.23
2018-08-30T18:48:20.202Z,67.12
2018-08-30T18:50:50.301Z,65.55
2018-08-30T18:53:20.402Z,64.89
2018-08-30T18:55:50.359Z,64.92
2018-08-30T18:58:20.187Z,65.56
2018-08-30T19:00:50.445Z,66.87
2018-08-30T19:03:20.130Z,67.21
2018-08-30T19:05:49.655Z,68.27
2018-08-30T19:08:19.311Z,68.66
2018-08-30T19:10:48.697Z,68.90
2018-08-30T19:13:18.585Z,69.46
2018-08-30T19:15:53.509Z,69.36
2018-08-30T19:18:28.355Z,70.02
2018-08-30T19:20:58.323Z,70.65
2018-08-30T19:23:29.999Z,70.99
2018-08-30T19:26:00.395Z,71.08
2018-08-30T19:28:29.821Z,71.05
2018-08-30T19:30:59.299Z,71.89
2018-08-30T19:33:29.081Z,72.49
2018-08-30T19:36:03.629Z,72.75
2018-08-30T19:38:33.031Z,72.79
2018-08-30T19:41:07.510Z,73.65
2018-08-30T19:43:37.466Z,73.80
2018-08-30T19:46:06.898Z,73.68
2018-08-30T19:48:36.374Z,73.46
2018-08-30T19:51:06.030Z,73.48
2018-08-30T19:53:35.487Z,74.16
2018-08-30T19:56:05.117Z,74.47
2018-08-30T19:58:34.981Z,74.29
2018-08-30T20:01:04.369Z,75.22
2018-08-30T20:03:33.904Z,75.06
2018-08-30T20:06:03.324Z,75.00
2018-08-30T20:08:33.241Z,74.56
2018-08-30T20:11:02.938Z,75.11
2018-08-30T20:13:32.846Z,74.72
2018-08-30T20:16:02.266Z,75.25
2018-08-30T20:18:31.712Z,75.05
2018-08-30T20:21:01.095Z,75.59
2018-08-30T20:23:30.546Z,75.88
2018-08-30T20:26:00.340Z,75.78
2018-08-30T20:28:30.082Z,76.25
2018-08-30T20:30:59.451Z,76.17
2018-08-30T20:33:28.847Z,76.11
2018-08-30T20:35:58.552Z,76.81
2018-08-30T20:38:28.138Z,77.50
2018-08-30T20:40:57.543Z,77.06
2018-08-30T20:43:27.028Z,76.66
2018-08-30T20:45:56.818Z,76.85
2018-08-30T20:48:26.278Z,76.57
2018-08-30T20:50:55.636Z,76.76
2018-08-30T20:53:25.108Z,76.59
2018-08-30T20:55:54.509Z,77.04
2018-08-30T20:58:24.301Z,77.39
2018-08-30T21:00:54.074Z,76.32
2018-08-30T21:03:23.839Z,76.69
2018-08-30T21:05:53.266Z,76.48
2018-08-30T21:08:23.117Z,77.25
2018-08-30T21:10:52.506Z,76.95
2018-08-30T21:13:22.337Z,77.29
2018-08-30T21:15:51.758Z,77.41
2018-08-30T21:18:21.131Z,77.64
2018-08-30T21:20:50.549Z,77.67
2018-08-30T21:23:20.296Z,78.47
2018-08-30T21:25:49.687Z,78.39
2018-08-30T21:28:19.055Z,77.96
2018-08-30T21:30:48.448Z,78.44
2018-08-30T21:33:17.769Z,78.93
2018-08-30T21:35:47.241Z,79.63
2018-08-30T21:38:17.025Z,80.16
2018-08-30T21:40:46.381Z,80.76
2018-08-30T21:43:15.929Z,81.03
2018-08-30T21:45:45.645Z,81.83
2018-08-30T21:48:15.413Z,81.18
2018-08-30T21:50:45.201Z,81.76
2018-08-30T21:53:14.625Z,81.93
2018-08-30T21:55:44.349Z,81.32
2018-08-30T21:58:14.109Z,81.31
2018-08-30T22:00:43.471Z,81.60
2018-08-30T22:03:13.245Z,82.26
2018-08-30T22:05:42.874Z,82.27
2018-08-30T22:08:12.515Z,81.86
2018-08-30T22:10:41.892Z,82.57
2018-08-30T22:13:11.244Z,82.10
2018-08-30T22:15:40.980Z,81.04
2018-08-30T22:18:10.345Z,80.96
2018-08-30T22:20:39.725Z,81.04
2018-08-30T22:23:09.153Z,81.18
2018-08-30T22:25:38.996Z,80.46
2018-08-30T22:28:08.351Z,80.88
2018-08-30T22:30:37.808Z,80.99
2018-08-30T22:33:07.233Z,81.46
2018-08-30T22:35:37.033Z,81.24
2018-08-30T22:38:06.846Z,81.17
2018-08-30T22:40:36.676Z,82.12
2018-08-30T22:43:06.397Z,82.07
2018-08-30T22:45:35.765Z,81.67
2018-08-30T22:48:05.795Z,82.18
2018-08-30T22:50:35.508Z,81.95
2018-08-30T22:53:05.005Z,81.16
2018-08-30T22:55:34.377Z,81.71
2018-08-30T22:58:03.788Z,81.27
2018-08-30T23:00:33.252Z,81.47
2018-08-30T23:03:02.804Z,81.20
2018-08-30T23:05:32.253Z,81.19
2018-08-30T23:08:01.728Z,80.35
2018-08-30T23:10:31.180Z,80.26
2018-08-30T23:13:01.020Z,80.88
2018-08-30T23:15:30.824Z,81.58
2018-08-30T23:18:00.600Z,81.72
2018-08-30T23:20:30.128Z,81.73
2018-08-30T23:22:59.855Z,82.28
2018-08-30T23:25:29.656Z,81.97
2018-08-30T23:27:59.449Z,80.88
2018-08-30T23:30:29.324Z,81.32
2018-08-30T23:32:59.084Z,80.73
2018-08-30T23:35:28.530Z,79.69
2018-08-30T23:37:58.328Z,79.51
2018-08-30T23:40:27.793Z,78.93
2018-08-30T23:42:57.579Z,79.90
2018-08-30T23:45:27.001Z,80.12
2018-08-30T23:47:56.743Z,80.72
2018-08-30T23:50:26.241Z,81.88
2018-08-30T23:52:55.609Z,81.43
2018-08-30T23:55:25.051Z,81.34
2018-08-30T23:58:05.663Z,80.90
